Impacts TAF Board INFO
FOR SITUATIONAL AWARENESS. NOT TO BE USED FOR FLIGHT PLANNING PURPOSES.
IDs:

KFLL - Ft Lauderdale-Hollyw, FL, US

Issued at 2345 UTC 24 May 2018
Updated at 0122 UTC 25 May 2018
Potential Impact None Slight Moderate High
Time<<26/02Z 26/03Z 26/04Z 26/05Z 26/06Z 26/07Z 26/08Z 26/09Z 26/10Z 26/11Z 26/12Z 26/13Z 26/14Z
Type PRVL PRVL PRVL PRVL
VIS >6 >6 >6 >6
CIG 40 120 120 120
Cover BKN BKN BKN BKN
FltCat VFR VFR VFR VFR
WX VCTS VCSH VCSH VCSH
WDir 130 110 110 110
WSpd 13 10 10 10
WGst -- -- -- --

Raw TAF
KFLL 242345Z 2500/2606 12007KT P6SM SCT050 BKN100 BKN250
  FM250300 VRB05KT P6SM SCT050 BKN100 BKN250
  FM251400 12010KT P6SM VCSH SCT035 BKN100
  FM251800 13013KT P6SM VCTS SCT020CB BKN040 BKN100
  FM260300 11010KT P6SM VCSH SCT040 BKN120


METAR Board
Radar Display
Forecast Discussion

FOR SITUATIONAL AWARENESS. NOT TO BE USED FOR FLIGHT PLANNING PURPOSES.